OSH weather

Wittman Regional Airport
Oshkosh, Wisconsin, United States

Public forecast

Using degrees Fahrenheit for public forecast. Weather courtesy of forecast.io.

Current aviation weather report (METAR) for Wittman Regional Airport

Retrieved 2019/11/13 20:53 UTC (35 minutes ago):

KOSH 132053Z 20008KT 3SM -SN FEW021 BKN032 OVC100 M06/M10 A2997 RMK AO2 SLP171 P0000 60001 T10611100 56018

Aviation forecast (TAF) for Wittman Regional Airport

Forecast is more than 12 hours old.

Retrieved 2019/07/30 12:39 UTC (4 months ago):

TAF KOSH 301136Z 3012/3112 36006KT P6SM BKN050 TEMPO 3015/3017 BKN025 FM301700 01006KT P6SM BKN035 FM302200 04005KT P6SM SCT045 FM310200 11003KT P6SM SKC FM310900 VRB03KT 6SM BR SKC